createdAt,value
2023-05-21T00:01:11.744Z,100418.28
2023-05-21T00:04:15.937Z,100414.34
2023-05-21T00:07:18.899Z,100412.31
2023-05-21T00:10:27.366Z,100408.72
2023-05-21T00:13:32.736Z,100409.53
2023-05-21T00:16:35.494Z,100407.53
2023-05-21T00:19:39.979Z,100410.03
2023-05-21T00:22:43.863Z,100408.91
2023-05-21T00:25:46.845Z,100397.78
2023-05-21T00:28:52.517Z,100392.84
2023-05-21T00:31:55.946Z,100389.87
2023-05-21T00:35:01.817Z,100399.13
2023-05-21T00:38:04.307Z,100399.81
2023-05-21T00:41:06.955Z,100399.16
2023-05-21T00:44:09.972Z,100405.06
2023-05-21T00:47:18.365Z,100398.81
2023-05-21T00:50:23.132Z,100396.00
2023-05-21T00:53:25.948Z,100403.75
2023-05-21T00:56:28.623Z,100398.47
2023-05-21T00:59:34.789Z,100398.81
2023-05-21T01:02:38.326Z,100394.69
2023-05-21T01:05:45.247Z,100391.72
2023-05-21T01:08:48.145Z,100392.84
2023-05-21T01:11:52.788Z,100388.25
2023-05-21T01:14:58.556Z,100385.56
2023-05-21T01:18:04.598Z,100380.59
2023-05-21T01:21:09.974Z,100377.25
2023-05-21T01:24:15.091Z,100368.81
2023-05-21T01:27:19.121Z,100375.56
2023-05-21T01:30:26.007Z,100372.06
2023-05-21T01:33:47.752Z,100374.19
2023-05-21T01:37:01.005Z,100375.34
2023-05-21T01:40:14.931Z,100381.59
2023-05-21T01:43:19.882Z,100382.72
2023-05-21T01:46:25.351Z,100378.56
2023-05-21T01:49:29.412Z,100381.34
2023-05-21T01:52:31.999Z,100380.00
2023-05-21T01:55:39.543Z,100377.16
2023-05-21T01:58:44.121Z,100372.91
2023-05-21T02:01:46.986Z,100377.62
2023-05-21T02:04:50.271Z,100369.63
2023-05-21T02:07:53.379Z,100370.75
2023-05-21T02:10:56.253Z,100363.88
2023-05-21T02:13:58.586Z,100357.59
2023-05-21T02:17:06.310Z,100354.91
2023-05-21T02:20:11.869Z,100358.16
2023-05-21T02:23:15.753Z,100353.84
2023-05-21T02:26:18.205Z,100355.44
2023-05-21T02:29:20.954Z,100355.06
2023-05-21T02:32:23.876Z,100359.28
2023-05-21T02:35:27.151Z,100362.72
2023-05-21T02:38:30.002Z,100359.84
2023-05-21T02:41:35.747Z,100356.84
2023-05-21T02:44:38.384Z,100357.16
2023-05-21T02:47:41.585Z,100360.06
2023-05-21T02:50:44.180Z,100349.47
2023-05-21T02:53:46.865Z,100363.25
2023-05-21T02:56:49.226Z,100357.59
2023-05-21T02:59:53.187Z,100365.81
2023-05-21T03:02:55.757Z,100360.53
2023-05-21T03:05:58.800Z,100368.28
2023-05-21T03:09:02.423Z,100368.12
2023-05-21T03:12:05.714Z,100355.78
2023-05-21T03:15:09.089Z,100368.50
2023-05-21T03:18:12.886Z,100365.72
2023-05-21T03:21:15.808Z,100363.47
2023-05-21T03:24:18.850Z,100367.16
2023-05-21T03:27:21.540Z,100368.44
2023-05-21T03:30:24.772Z,100357.34
2023-05-21T03:33:28.330Z,100366.19
2023-05-21T03:36:31.735Z,100358.72
2023-05-21T03:39:34.146Z,100354.78
2023-05-21T03:42:37.006Z,100345.59
2023-05-21T03:45:42.127Z,100350.72
2023-05-21T03:48:48.332Z,100353.75
2023-05-21T03:51:51.165Z,100355.91
2023-05-21T03:54:54.109Z,100356.56
2023-05-21T03:57:56.597Z,100357.09
2023-05-21T04:01:01.900Z,100357.62
2023-05-21T04:04:05.402Z,100362.09
2023-05-21T04:07:14.429Z,100359.16
2023-05-21T04:10:17.412Z,100365.75
2023-05-21T04:13:20.038Z,100375.97
2023-05-21T04:16:24.752Z,100377.66
2023-05-21T04:19:28.248Z,100375.97
2023-05-21T04:22:31.192Z,100370.22
2023-05-21T04:25:34.221Z,100366.28
2023-05-21T04:28:42.145Z,100361.84
2023-05-21T04:31:45.651Z,100359.56
2023-05-21T04:34:50.055Z,100362.03
2023-05-21T04:37:56.089Z,100364.19
2023-05-21T04:40:59.049Z,100365.22
2023-05-21T04:44:01.514Z,100373.31
2023-05-21T04:47:05.514Z,100362.94
2023-05-21T04:50:08.679Z,100370.06
2023-05-21T04:53:11.593Z,100369.59
2023-05-21T04:56:17.610Z,100376.19
2023-05-21T04:59:22.968Z,100372.44
2023-05-21T05:02:25.531Z,100366.34
2023-05-21T05:05:31.688Z,100367.69
2023-05-21T05:08:35.427Z,100375.28
2023-05-21T05:11:39.132Z,100365.25
2023-05-21T05:14:41.859Z,100368.06
2023-05-21T05:17:48.388Z,100373.03
2023-05-21T05:20:50.921Z,100374.19
2023-05-21T05:23:54.312Z,100373.22
2023-05-21T05:26:57.278Z,100378.00
2023-05-21T05:30:00.043Z,100376.66
2023-05-21T05:33:02.564Z,100379.28
2023-05-21T05:36:06.165Z,100381.53
2023-05-21T05:39:11.303Z,100372.78
2023-05-21T05:42:15.361Z,100374.28
2023-05-21T05:45:18.062Z,100368.47
2023-05-21T05:48:21.031Z,100360.97
2023-05-21T05:51:23.594Z,100365.34
2023-05-21T05:54:26.538Z,100364.47
2023-05-21T05:57:29.150Z,100366.22
2023-05-21T06:00:33.082Z,100363.16
2023-05-21T06:03:36.408Z,100360.84
2023-05-21T06:06:42.157Z,100363.22
2023-05-21T06:09:44.935Z,100350.34
2023-05-21T06:12:47.346Z,100358.53
2023-05-21T06:15:50.460Z,100358.03
2023-05-21T06:18:53.100Z,100343.38
2023-05-21T06:21:55.972Z,100344.78
2023-05-21T06:24:58.465Z,100341.72
2023-05-21T06:28:01.629Z,100344.09
2023-05-21T06:31:04.435Z,100340.09
2023-05-21T06:34:07.753Z,100344.78
2023-05-21T06:37:10.806Z,100338.53
2023-05-21T06:40:13.772Z,100340.19
2023-05-21T06:43:16.699Z,100342.41
2023-05-21T06:46:22.832Z,100330.81
2023-05-21T06:49:27.226Z,100333.81
2023-05-21T06:52:31.784Z,100334.84
2023-05-21T06:55:35.771Z,100331.38
2023-05-21T06:58:40.150Z,100316.91
2023-05-21T07:01:42.756Z,100316.38
2023-05-21T07:04:45.986Z,100311.16
2023-05-21T07:07:48.454Z,100298.28
2023-05-21T07:10:52.922Z,100306.53
2023-05-21T07:14:00.376Z,100302.31
2023-05-21T07:17:04.445Z,100308.84
2023-05-21T07:20:08.006Z,100299.41
2023-05-21T07:23:11.449Z,100305.63
2023-05-21T07:26:13.920Z,100312.50
2023-05-21T07:29:17.668Z,100302.63
2023-05-21T07:32:20.103Z,100298.00
2023-05-21T07:35:23.656Z,100300.94
2023-05-21T07:38:26.474Z,100299.13
2023-05-21T07:41:29.466Z,100295.09
2023-05-21T07:44:33.198Z,100286.69
2023-05-21T07:47:36.220Z,100291.59
2023-05-21T07:50:38.760Z,100300.94
2023-05-21T07:53:42.161Z,100303.16
2023-05-21T07:56:45.315Z,100292.34
2023-05-21T07:59:51.287Z,100283.16
2023-05-21T08:02:53.933Z,100289.53
2023-05-21T08:05:57.044Z,100277.28
2023-05-21T08:09:03.594Z,100286.69
2023-05-21T08:12:07.647Z,100274.41
2023-05-21T08:15:12.027Z,100273.84
2023-05-21T08:18:18.413Z,100280.38
2023-05-21T08:21:21.687Z,100274.44
2023-05-21T08:24:24.573Z,100272.75
2023-05-21T08:27:27.233Z,100283.09
2023-05-21T08:30:30.253Z,100276.34
2023-05-21T08:33:37.269Z,100268.22
2023-05-21T08:36:43.335Z,100270.06
2023-05-21T08:39:46.974Z,100269.31
2023-05-21T08:42:51.023Z,100272.62
2023-05-21T08:45:57.433Z,100273.91
2023-05-21T08:49:03.490Z,100270.94
2023-05-21T08:52:06.783Z,100280.59
2023-05-21T08:55:10.330Z,100268.44
2023-05-21T08:58:15.905Z,100271.56
2023-05-21T09:01:20.300Z,100262.09
2023-05-21T09:04:24.050Z,100265.81
2023-05-21T09:07:36.129Z,100262.84
2023-05-21T09:10:42.708Z,100265.06
2023-05-21T09:13:46.552Z,100262.59
2023-05-21T09:16:50.079Z,100255.31
2023-05-21T09:20:15.411Z,100252.66
2023-05-21T09:23:19.517Z,100252.88
2023-05-21T09:26:24.320Z,100252.00
2023-05-21T09:29:28.228Z,100244.09
2023-05-21T09:32:36.337Z,100255.53
2023-05-21T09:35:46.522Z,100249.16
2023-05-21T09:38:52.173Z,100243.56
2023-05-21T09:41:57.616Z,100244.16
2023-05-21T09:45:01.822Z,100250.22
2023-05-21T09:48:08.364Z,100259.53
2023-05-21T09:51:38.284Z,100257.31
2023-05-21T09:54:49.746Z,100253.03
2023-05-21T09:57:55.188Z,100248.56
2023-05-21T10:00:57.720Z,100248.16
2023-05-21T10:04:09.075Z,100241.06
2023-05-21T10:07:12.273Z,100233.00
2023-05-21T10:10:17.277Z,100237.41
2023-05-21T10:13:23.595Z,100237.75
2023-05-21T10:16:26.917Z,100244.09
2023-05-21T10:19:34.317Z,100234.34
2023-05-21T10:22:38.090Z,100225.62
2023-05-21T10:25:48.889Z,100223.50
2023-05-21T10:28:58.721Z,100223.34
2023-05-21T10:32:06.481Z,100222.28
2023-05-21T10:35:10.074Z,100224.28
2023-05-21T10:38:13.987Z,100215.88
2023-05-21T10:41:19.908Z,100206.91
2023-05-21T10:44:46.610Z,100217.72
2023-05-21T10:48:26.632Z,100217.97
2023-05-21T10:51:36.812Z,100209.06
2023-05-21T10:55:02.115Z,100207.72
2023-05-21T10:58:35.370Z,100214.97
2023-05-21T11:01:41.295Z,100211.53
2023-05-21T11:04:49.227Z,100201.62
2023-05-21T11:07:58.714Z,100187.53
2023-05-21T11:11:02.349Z,100180.22
2023-05-21T11:14:33.154Z,100188.56
2023-05-21T11:17:44.575Z,100181.66
2023-05-21T11:21:04.732Z,100185.00
2023-05-21T11:24:11.003Z,100183.75
2023-05-21T11:27:14.942Z,100180.00
2023-05-21T11:30:19.672Z,100176.53
2023-05-21T11:33:23.178Z,100170.03
2023-05-21T11:36:28.687Z,100170.94
2023-05-21T11:39:40.354Z,100166.50
2023-05-21T11:42:50.963Z,100166.72
2023-05-21T11:45:54.862Z,100155.66
2023-05-21T11:48:59.545Z,100159.31
2023-05-21T11:52:04.057Z,100151.69
2023-05-21T11:55:07.471Z,100150.19
2023-05-21T11:58:13.774Z,100149.03
2023-05-21T12:01:24.837Z,100157.06
2023-05-21T12:04:31.720Z,100145.09
2023-05-21T12:07:34.333Z,100143.50
2023-05-21T12:10:40.011Z,100137.59
2023-05-21T12:13:42.446Z,100136.31
2023-05-21T12:16:45.345Z,100137.16
2023-05-21T12:19:49.488Z,100132.09
2023-05-21T12:22:52.281Z,100124.16
2023-05-21T12:25:55.082Z,100124.84
2023-05-21T12:28:57.965Z,100124.22
2023-05-21T12:32:06.821Z,100121.87
2023-05-21T12:35:20.727Z,100110.63
2023-05-21T12:38:23.118Z,100113.06
2023-05-21T12:41:26.663Z,100110.81
2023-05-21T12:44:36.864Z,100100.50
2023-05-21T12:47:42.131Z,100099.34
2023-05-21T12:50:44.885Z,100095.16
2023-05-21T12:53:51.009Z,100093.06
2023-05-21T12:56:53.482Z,100081.91
2023-05-21T13:00:02.770Z,100076.41
2023-05-21T13:03:06.739Z,100086.75
2023-05-21T13:06:09.984Z,100081.25
2023-05-21T13:09:15.607Z,100073.97
2023-05-21T13:12:18.782Z,100066.97
2023-05-21T13:15:22.811Z,100055.22
2023-05-21T13:18:28.239Z,100066.72
2023-05-21T13:21:31.250Z,100057.44
2023-05-21T13:24:33.931Z,100065.03
2023-05-21T13:27:36.257Z,100052.66
2023-05-21T13:30:39.192Z,100055.94
2023-05-21T13:33:41.974Z,100049.09
2023-05-21T13:36:44.861Z,100051.69
2023-05-21T13:39:48.030Z,100050.84
2023-05-21T13:43:00.554Z,100044.50
2023-05-21T13:46:05.792Z,100050.69
2023-05-21T13:49:08.536Z,100044.31
2023-05-21T13:52:11.925Z,100043.91
2023-05-21T13:55:16.131Z,100040.28
2023-05-21T13:58:19.216Z,100043.59
2023-05-21T14:01:24.675Z,100045.03
2023-05-21T14:04:29.636Z,100045.13
2023-05-21T14:07:37.525Z,100034.50
2023-05-21T14:10:40.230Z,100034.53
2023-05-21T14:13:43.365Z,100028.66
2023-05-21T14:16:49.884Z,100022.59
2023-05-21T14:19:54.961Z,100025.84
2023-05-21T14:22:57.648Z,100027.22
2023-05-21T14:26:00.156Z,100025.56
2023-05-21T14:29:03.572Z,100022.88
2023-05-21T14:32:07.248Z,100025.09
2023-05-21T14:35:10.132Z,100019.97
2023-05-21T14:38:12.679Z,100013.75
2023-05-21T14:41:19.325Z,100019.66
2023-05-21T14:44:22.703Z,100011.31
2023-05-21T14:47:25.680Z,100014.72
2023-05-21T14:50:28.621Z,100012.84
2023-05-21T14:53:31.384Z,100003.72
2023-05-21T14:56:33.876Z,100007.53
2023-05-21T14:59:36.613Z,100011.22
2023-05-21T15:02:39.668Z,100016.59
2023-05-21T15:05:43.717Z,100019.44
2023-05-21T15:08:46.108Z,100020.06
2023-05-21T15:11:52.602Z,100003.88
2023-05-21T15:14:55.093Z,100008.44
2023-05-21T15:17:58.214Z,100002.38
2023-05-21T15:21:01.022Z,99994.16
2023-05-21T15:24:04.233Z,99997.31
2023-05-21T15:27:06.812Z,99995.97
2023-05-21T15:30:13.255Z,100004.16
2023-05-21T15:33:15.882Z,99999.88
2023-05-21T15:36:29.152Z,99990.09
2023-05-21T15:39:31.711Z,99995.06
2023-05-21T15:42:34.430Z,99994.78
2023-05-21T15:45:40.115Z,99996.47
2023-05-21T15:48:46.041Z,99995.44
2023-05-21T15:51:48.748Z,100002.56
2023-05-21T15:55:01.575Z,99996.53
2023-05-21T15:58:04.358Z,99997.53
2023-05-21T16:01:07.077Z,99996.28
2023-05-21T16:04:10.020Z,99999.63
2023-05-21T16:07:12.528Z,99998.34
2023-05-21T16:10:15.383Z,99994.78
2023-05-21T16:13:18.112Z,99984.81
2023-05-21T16:16:23.846Z,99979.91
2023-05-21T16:19:27.445Z,99988.28
2023-05-21T16:22:30.313Z,99985.59
2023-05-21T16:25:36.689Z,99986.47
2023-05-21T16:28:50.636Z,99984.13
2023-05-21T16:32:02.000Z,99988.03
2023-05-21T16:35:08.003Z,99986.91
2023-05-21T16:38:10.630Z,99994.37
2023-05-21T16:41:13.927Z,99988.44
2023-05-21T16:44:16.549Z,99992.84
2023-05-21T16:47:19.457Z,99992.59
2023-05-21T16:50:22.037Z,99988.06
2023-05-21T16:53:37.861Z,99989.22
2023-05-21T16:56:42.219Z,99991.09
2023-05-21T16:59:45.005Z,99995.72
2023-05-21T17:02:47.516Z,99999.16
2023-05-21T17:05:50.576Z,100001.44
2023-05-21T17:08:53.310Z,100002.59
2023-05-21T17:11:58.203Z,100010.13
2023-05-21T17:15:00.723Z,100013.34
2023-05-21T17:18:03.491Z,100012.84
2023-05-21T17:21:06.052Z,100018.94
2023-05-21T17:24:08.899Z,100017.06
2023-05-21T17:27:11.531Z,100015.50
2023-05-21T17:30:14.591Z,100017.50
2023-05-21T17:33:17.190Z,100023.81
2023-05-21T17:36:20.197Z,100025.19
2023-05-21T17:39:23.089Z,100022.47
2023-05-21T17:42:26.315Z,100014.97
2023-05-21T17:45:28.890Z,100024.72
2023-05-21T17:48:34.130Z,100026.28
2023-05-21T17:51:37.215Z,100023.31
2023-05-21T17:54:40.348Z,100023.81
2023-05-21T17:57:42.755Z,100018.56
2023-05-21T18:00:51.048Z,100020.91
2023-05-21T18:03:54.055Z,100025.88
2023-05-21T18:06:56.462Z,100034.53
2023-05-21T18:09:59.264Z,100031.50
2023-05-21T18:13:01.861Z,100036.66
2023-05-21T18:16:05.088Z,100031.13
2023-05-21T18:19:07.731Z,100032.16
2023-05-21T18:22:12.120Z,100033.78
2023-05-21T18:25:14.606Z,100039.09
2023-05-21T18:28:17.302Z,100035.38
2023-05-21T18:31:20.284Z,100042.72
2023-05-21T18:34:22.993Z,100042.31
2023-05-21T18:37:27.278Z,100038.59
2023-05-21T18:40:30.850Z,100045.50
2023-05-21T18:43:36.120Z,100054.81
2023-05-21T18:46:40.948Z,100055.66
2023-05-21T18:49:43.366Z,100058.28
2023-05-21T18:52:47.030Z,100063.78
2023-05-21T18:55:49.510Z,100060.44
2023-05-21T18:58:52.296Z,100054.69
2023-05-21T19:01:55.059Z,100058.69
2023-05-21T19:04:58.139Z,100068.66
2023-05-21T19:08:00.936Z,100058.19
2023-05-21T19:11:03.962Z,100061.78
2023-05-21T19:14:06.390Z,100068.66
2023-05-21T19:17:09.082Z,100069.59
2023-05-21T19:20:23.136Z,100068.72
2023-05-21T19:23:26.296Z,100075.19
2023-05-21T19:26:28.788Z,100074.50
2023-05-21T19:29:31.472Z,100078.09
2023-05-21T19:32:33.899Z,100076.41
2023-05-21T19:35:38.925Z,100078.34
2023-05-21T19:38:48.375Z,100083.66
2023-05-21T19:41:54.024Z,100084.47
2023-05-21T19:44:56.503Z,100084.72
2023-05-21T19:48:00.026Z,100079.97
2023-05-21T19:51:07.507Z,100079.00
2023-05-21T19:54:12.595Z,100084.56
2023-05-21T19:57:15.131Z,100081.00
2023-05-21T20:00:19.020Z,100081.44
2023-05-21T20:03:22.018Z,100078.66
2023-05-21T20:06:24.612Z,100082.75
2023-05-21T20:09:27.335Z,100073.63
2023-05-21T20:12:29.863Z,100080.03
2023-05-21T20:15:32.600Z,100084.66
2023-05-21T20:18:36.023Z,100084.69
2023-05-21T20:21:38.737Z,100087.63
2023-05-21T20:24:41.469Z,100088.91
2023-05-21T20:27:44.148Z,100092.16
2023-05-21T20:30:57.309Z,100124.44
2023-05-21T20:34:00.823Z,100112.19
2023-05-21T20:37:03.720Z,100114.25
2023-05-21T20:40:07.228Z,100117.53
2023-05-21T20:43:13.778Z,100118.69
2023-05-21T20:46:18.521Z,100122.94
2023-05-21T20:49:24.925Z,100123.31
2023-05-21T20:52:27.960Z,100125.13
2023-05-21T20:55:35.132Z,100120.47
2023-05-21T20:58:40.112Z,100119.16
2023-05-21T21:01:42.670Z,100104.38
2023-05-21T21:04:50.756Z,100102.84
2023-05-21T21:07:55.898Z,100108.59
2023-05-21T21:10:58.948Z,100098.22
2023-05-21T21:14:02.725Z,100095.44
2023-05-21T21:17:05.905Z,100104.41
2023-05-21T21:20:09.785Z,100100.31
2023-05-21T21:23:12.769Z,100106.62
2023-05-21T21:26:17.273Z,100108.84
2023-05-21T21:29:19.948Z,100114.22
2023-05-21T21:32:22.618Z,100113.03
2023-05-21T21:35:25.838Z,100113.53
2023-05-21T21:38:28.657Z,100115.97
2023-05-21T21:41:31.550Z,100129.53
2023-05-21T21:44:34.239Z,100121.87
2023-05-21T21:47:37.070Z,100122.78
2023-05-21T21:50:48.398Z,100120.06
2023-05-21T21:53:51.364Z,100125.59
2023-05-21T21:56:54.406Z,100123.38
2023-05-21T22:00:00.383Z,100127.06
2023-05-21T22:03:02.871Z,100128.41
2023-05-21T22:06:05.756Z,100121.84
2023-05-21T22:09:11.427Z,100116.56
2023-05-21T22:12:16.779Z,100126.19
2023-05-21T22:15:22.991Z,100123.06
2023-05-21T22:18:39.647Z,100119.00
2023-05-21T22:21:43.316Z,100118.22
2023-05-21T22:24:46.085Z,100122.34
2023-05-21T22:27:48.548Z,100120.69
2023-05-21T22:30:51.643Z,100126.53
2023-05-21T22:33:54.258Z,100125.91
2023-05-21T22:36:57.034Z,100124.09
2023-05-21T22:40:02.191Z,100122.13
2023-05-21T22:43:05.428Z,100120.50
2023-05-21T22:46:07.984Z,100125.47
2023-05-21T22:49:10.804Z,100123.13
2023-05-21T22:52:14.719Z,100114.28
2023-05-21T22:55:19.903Z,100123.22
2023-05-21T22:58:22.264Z,100121.56
2023-05-21T23:01:25.170Z,100118.94
2023-05-21T23:04:43.288Z,100116.31
2023-05-21T23:07:46.961Z,100123.91
2023-05-21T23:10:49.469Z,100129.19
2023-05-21T23:13:52.120Z,100121.63
2023-05-21T23:16:55.298Z,100113.34
2023-05-21T23:19:59.522Z,100111.37
2023-05-21T23:23:02.048Z,100116.16
2023-05-21T23:26:07.651Z,100113.97
2023-05-21T23:29:10.073Z,100113.62
2023-05-21T23:32:12.976Z,100118.69
2023-05-21T23:35:16.279Z,100122.31
2023-05-21T23:38:19.094Z,100126.25
2023-05-21T23:41:23.100Z,100128.22
2023-05-21T23:44:26.010Z,100124.91
2023-05-21T23:47:28.558Z,100117.66
2023-05-21T23:50:34.406Z,100112.56
2023-05-21T23:53:36.848Z,100109.25
2023-05-21T23:56:39.582Z,100107.94
2023-05-21T23:59:41.994Z,100104.97
